Regional La Paz
EstaciónAerodromoSit. GeograficaDescripción
SLLPInternaciónal El Alto16-08S-68-10W SLLP 161000Z 06003KT 9999 FEW003 SCT200 00/M01 Q1038 A3066 628.1 HR95 P90// NOSIG=
SLRYReyes14-18S-67-21W SLRY 161100Z 00000KT 8000 NSC 19/19 Q1010 A2985 HR98 FU RWY NML=
SLRQRurrenabaque14-25S-67-29W SLRQ 161100Z 00000KT 8000 NSC 21/21 Q1009 A2982 985.8 HR97 FU=
SLAPApolo14-44S-68-24W SLAP 152200Z NIL=
SLSBSan Borja14-51S-66-44W SLSB 161100Z 00000KT 5000 FU NSC 21/21 Q1010 A2983 HR98 RWY NML=
SLCNCharaña17-35S-69-25W
SLOROruro17-57S-67-04W SLOR 160100Z 19009KT 9999 FEW015 09/04 Q1036 A3060 656.7 HR69=
SLUYUyuni20-27S-62-52W SLUY 161100Z 00000KT 9999 FEW070 M04/M13 Q1036 A3061 660.1 HR50 FU CI=
SLCCCopacabana - Tito Yupanqui16-11S-69-05W SLCC 152200Z NIL=
Regional Cochabamba
EstaciónAerodromoSit. GeograficaDescripción
SLVMVillamontes21-15S-63-24W SLVM 141700Z NIL=
SLHIChimore16-58S-65-09W SLHI 160000Z 00000KT 8000 FEW070 25/24 Q1008 A2977 981.1 HR94 FU=
SLCBCochabamba17-25S-66-10W SLCB 161000Z 28003KT 8000 NSC 11/07 Q1024 A3025 751.0 HR78 FU CI NOSIG=
SLALAlcantari19-14S-65-09W SLAL 161000Z 00000KT 9999 NSC 13/02 Q1029 A3040 704.1 HR48=
SLPOPotosí19-32S-65-43W SLPO 141700Z NIL=
SLAGMonteagudo19-49S-63-58W SLAG 141700Z NIL=
SLTJTarija21-33S-64-42W SLTJ 161000Z 00000KT 9999 NSC 14/08 Q1017 A3003 812.4 HR66 CI FU=
SLYAYacuiba21-57S-63-39W SLYA 161000Z 00000KT 9999 NSC 16/14 Q1005 A2969 930,7 HR89 FU=
SLBJBermejo22-46S-64-18W SLBJ 141700Z NIL=
Regional Santa Cruz
EstaciónAerodromoSit. GeograficaDescripción
SLVGValle Grande18-28S-64-05W SLVG 152100Z NIL=
SLASAscención de Guarayos15-55S-63-09W SLAS 152300Z 00000KT 5000 FU NSC 32/21 Q1008 A2977 HR52 RWY NML =
SLCPConcepción16-08S-62-01W SLCP 161000Z 00000KT 0300 FU NSC 23/21 Q1013 A2991 HR88 RWY NML =
SLJVSan Javier16-16S-62-28W SLJV 152200Z 36010KT 4000 FU NSC 30/19 Q1008 HR53 RWY NML=
SLTISan Matías16-20S-58-24W SLTI 152100Z NIL=
SLSISan Ignacio de Velasco16-23S-60-57W SLSI 161000Z 00000KT 3000 FU NSC 25/20 Q1010 A2983 HR76 RWY NML =
SLVRInternaciónal Viru Viru17-38S-63-08W SLVR 161100Z 34011G21KT 5000 FU NSC 26/19 Q1009 A2980 HR66 NOSIG=
SLETEl Trompillo17-48S-63-10W SLET 161100Z 32015G28KT 4000 FU NSC 27/19 Q1008 A2977 HR61 NOSIG=
SLJESan José de Chiquitos17-49S-60-44W SLJE 152100Z NIL=
SLRBRoboré18-19S-59-45W SLRB 161100Z 00000KT 2500 FU NSC 30/20 Q1011 A2985 HR56 RWY NML=
SLPSPuerto Suárez18-58S-57-49W SLPS 161100Z 09004KT 1000 FU NSC 27/21 Q1010 A2983 HR68=
SLCACamiri20-00S-63-31W SLCA 161100Z 00000KT 9999 NSC 16/14 Q1010 A2983 HR89 FU RWY NML =
Regional Beni
EstaciónAerodromoSit. GeograficaDescripción
SLTRTrinidad14-49S-64-54W SLTR 161000Z 00000KT 5000 FU NSC 23/21 Q1009 A2981 991.0 HR88 CI NOSIG=
SLCOCobija11-02S-68-47W SLCO 161100Z 00000KT 2000 FU NSC 24/21 Q1011 A2986 983.9 HR83 CI=
SLGMGuayaramerín10-53S-65-23W SLGM 161000Z 32004KT 3000 FU NSC 24/23 Q1010 A2982 HR93=
SLRIRiberalta11-00S-66-04W SLRI 161100Z 00000KT 3000 FU NSC 26/25 Q1011 A2987 HR95=
SLJOSan Joaquin13-03S-64-39W SLJO 161000Z 00000KT 5000 FU NSC 23/22 Q1008 A2979 HR93 RWY NML=
SLRASan Ramón13-15S-64-36W SLRA 161000Z 00000KT 7000 NSC 23/22 Q1009 A2980 HR92 FU CI RWY NML=
SLMGSan Magdalena13-15S-64-36W SLMG 161000Z 00000KT 7000 NSC 24/22 Q1009 A2981 HR90 FU RWY NML=
SLBUBaures13-39S-63-42W SLBU 161000Z NIL=
SLSASanta Ana de Yacuma13-45S-65-26W SLSA 161000Z 00000KT 5000 FU NSC 22/21 Q1009 A2980 HR93 CI=
SLSRSanta Rosa14-04S-66-47W SLSR 161000Z 00000KT 8000 NSC 24/22 Q1008 A2978 HR83 FU CI RWY NML=
SLSMSan Ignacio de Moxos14-57S-65-38W SLSM 161000Z 00000KT 8000 NSC 22/21 Q1009 A2981 HR90 FU RWY NML=